createdAt,value
2019-05-29T00:00:16.398Z,29.5
2019-05-29T00:01:21.766Z,29.7
2019-05-29T00:02:24.273Z,29.6
2019-05-29T00:03:26.761Z,29.6
2019-05-29T00:04:29.205Z,29.8
2019-05-29T00:05:31.106Z,29.7
2019-05-29T00:06:32.986Z,29.6
2019-05-29T00:07:34.869Z,29.6
2019-05-29T00:08:37.302Z,29.7
2019-05-29T00:09:39.454Z,29.7
2019-05-29T00:10:41.075Z,29.8
2019-05-29T00:11:43.527Z,29.9
2019-05-29T00:12:45.663Z,29.8
2019-05-29T00:13:48.104Z,29.7
2019-05-29T00:14:49.991Z,29.8
2019-05-29T00:15:52.145Z,29.8
2019-05-29T00:16:53.737Z,30.1
2019-05-29T00:17:56.208Z,29.7
2019-05-29T00:18:58.642Z,29.8
2019-05-29T00:20:01.075Z,29.8
2019-05-29T00:21:02.946Z,29.7
2019-05-29T00:22:06.794Z,29.7
2019-05-29T00:23:10.826Z,29.8
2019-05-29T00:24:15.747Z,29.6
2019-05-29T00:25:18.839Z,29.9
2019-05-29T00:26:21.326Z,29.7
2019-05-29T00:27:23.470Z,29.8
2019-05-29T00:28:25.891Z,29.8
2019-05-29T00:29:28.057Z,29.8
2019-05-29T00:30:30.491Z,29.9
2019-05-29T00:31:32.919Z,29.6
2019-05-29T00:32:35.452Z,29.8
2019-05-29T00:33:39.627Z,30
2019-05-29T00:34:41.491Z,29.8
2019-05-29T00:35:43.986Z,30
2019-05-29T00:36:46.131Z,29.7
2019-05-29T00:37:48.566Z,29.7
2019-05-29T00:38:50.729Z,29.8
2019-05-29T00:39:53.219Z,29.9
2019-05-29T00:40:55.066Z,29.9
2019-05-29T00:41:57.504Z,29.6
2019-05-29T00:42:59.932Z,29.9
2019-05-29T00:44:01.271Z,29.8
2019-05-29T00:45:03.700Z,29.6
2019-05-29T00:46:07.101Z,29.8
2019-05-29T00:47:10.036Z,30
2019-05-29T00:48:15.904Z,29.9
2019-05-29T00:49:19.375Z,30
2019-05-29T00:50:21.532Z,29.6
2019-05-29T00:51:23.988Z,29.7
2019-05-29T00:52:26.403Z,29.9
2019-05-29T00:53:28.836Z,30
2019-05-29T00:54:31.167Z,30
2019-05-29T00:55:33.327Z,29.8
2019-05-29T00:56:35.747Z,29.9
2019-05-29T00:57:38.171Z,29.8
2019-05-29T00:58:41.465Z,29.8
2019-05-29T00:59:43.963Z,29.8
2019-05-29T01:00:46.130Z,29.9
2019-05-29T01:01:48.297Z,30
2019-05-29T01:02:50.496Z,30
2019-05-29T01:03:53.089Z,29.8
2019-05-29T01:04:55.248Z,30
2019-05-29T01:05:57.675Z,30.1
2019-05-29T01:07:00.098Z,30
2019-05-29T01:08:02.537Z,30
2019-05-29T01:09:04.970Z,29.9
2019-05-29T01:10:07.129Z,29.9
2019-05-29T01:11:10.545Z,29.8
2019-05-29T01:12:15.180Z,30.1
2019-05-29T01:13:21.186Z,29.9
2019-05-29T01:14:23.693Z,29.8
2019-05-29T01:15:26.122Z,29.9
2019-05-29T01:16:28.556Z,29.9
2019-05-29T01:17:30.156Z,29.9
2019-05-29T01:18:32.585Z,29.8
2019-05-29T01:19:35.034Z,30
2019-05-29T01:20:37.217Z,29.8
2019-05-29T01:21:39.385Z,30.1
2019-05-29T01:22:41.805Z,29.9
2019-05-29T01:23:44.231Z,29.9
2019-05-29T01:24:46.651Z,29.7
2019-05-29T01:25:48.240Z,29.8
2019-05-29T01:26:50.827Z,29.7
2019-05-29T01:27:52.957Z,30.1
2019-05-29T01:28:55.096Z,30
2019-05-29T01:29:57.534Z,29.9
2019-05-29T01:30:59.958Z,29.8
2019-05-29T01:32:02.299Z,30
2019-05-29T01:33:04.464Z,29.9
2019-05-29T01:34:06.957Z,29.7
2019-05-29T01:35:09.384Z,29.8
2019-05-29T01:36:11.255Z,30
2019-05-29T01:37:14.405Z,29.8
2019-05-29T01:38:19.294Z,29.9
2019-05-29T01:39:24.476Z,30
2019-05-29T01:40:29.564Z,30
2019-05-29T01:41:31.812Z,30
2019-05-29T01:42:33.961Z,30
2019-05-29T01:43:36.126Z,29.8
2019-05-29T01:44:38.288Z,29.9
2019-05-29T01:45:40.715Z,29.8
2019-05-29T01:46:43.152Z,29.9
2019-05-29T01:47:45.583Z,29.9
2019-05-29T01:48:47.740Z,29.8
2019-05-29T01:49:50.203Z,30
2019-05-29T01:50:52.082Z,29.8
2019-05-29T01:51:53.684Z,30
2019-05-29T01:52:55.833Z,29.9
2019-05-29T01:53:58.276Z,30
2019-05-29T01:55:00.436Z,30.1
2019-05-29T01:56:02.880Z,29.9
2019-05-29T01:57:05.304Z,29.8
2019-05-29T01:58:07.470Z,30
2019-05-29T01:59:09.894Z,30
2019-05-29T02:00:12.059Z,29.9
2019-05-29T02:01:13.915Z,29.9
2019-05-29T02:02:20.413Z,29.9
2019-05-29T02:03:24.976Z,30
2019-05-29T02:04:28.734Z,30
2019-05-29T02:05:31.229Z,29.8
2019-05-29T02:06:33.416Z,29.8
2019-05-29T02:07:35.276Z,29.9
2019-05-29T02:08:37.706Z,30
2019-05-29T02:09:39.854Z,30
2019-05-29T02:10:42.290Z,30
2019-05-29T02:11:44.734Z,29.9
2019-05-29T02:12:47.160Z,29.8
2019-05-29T02:13:49.575Z,30
2019-05-29T02:14:52.001Z,29.9
2019-05-29T02:15:54.127Z,29.8
2019-05-29T02:16:56.297Z,30
2019-05-29T02:17:58.465Z,29.9
2019-05-29T02:19:00.346Z,30
2019-05-29T02:20:02.503Z,30
2019-05-29T02:21:04.366Z,29.9
2019-05-29T02:22:06.516Z,30
2019-05-29T02:23:08.963Z,30.2
2019-05-29T02:24:11.081Z,30
2019-05-29T02:25:17.338Z,29.8
2019-05-29T02:26:20.417Z,30
2019-05-29T02:27:25.552Z,29.9
2019-05-29T02:28:28.884Z,30.2
2019-05-29T02:29:31.046Z,30
2019-05-29T02:30:33.216Z,30
2019-05-29T02:31:35.381Z,30.1
2019-05-29T02:32:37.823Z,30.1
2019-05-29T02:33:39.965Z,30
2019-05-29T02:34:42.122Z,30
2019-05-29T02:35:44.277Z,30
2019-05-29T02:36:46.699Z,30
2019-05-29T02:37:48.848Z,29.9
2019-05-29T02:38:50.722Z,30.1
2019-05-29T02:39:52.879Z,30
2019-05-29T02:40:55.298Z,30
2019-05-29T02:41:57.476Z,30
2019-05-29T02:42:59.067Z,29.8
2019-05-29T02:44:01.491Z,29.9
2019-05-29T02:45:03.928Z,30.1
2019-05-29T02:46:06.064Z,30
2019-05-29T02:47:07.937Z,29.9
2019-05-29T02:48:10.381Z,29.9
2019-05-29T02:49:13.426Z,29.9
2019-05-29T02:50:15.653Z,29.8
2019-05-29T02:51:17.815Z,30
2019-05-29T02:52:28.665Z,29.9
2019-05-29T02:53:32.785Z,29.7
2019-05-29T02:54:35.214Z,29.9
2019-05-29T02:55:37.367Z,29.8
2019-05-29T02:56:42.380Z,29.9
2019-05-29T02:57:44.791Z,30
2019-05-29T02:58:46.695Z,30.2
2019-05-29T02:59:48.583Z,29.9
2019-05-29T03:00:51.019Z,30
2019-05-29T03:01:53.475Z,30
2019-05-29T03:02:55.641Z,30.2
2019-05-29T03:03:58.101Z,29.9
2019-05-29T03:05:00.245Z,29.9
2019-05-29T03:06:02.697Z,29.8
2019-05-29T03:07:04.856Z,29.8
2019-05-29T03:08:07.343Z,29.8
2019-05-29T03:09:09.193Z,30
2019-05-29T03:10:11.636Z,29.9
2019-05-29T03:11:14.147Z,29.8
2019-05-29T03:12:16.289Z,29.8
2019-05-29T03:13:19.282Z,29.6
2019-05-29T03:14:22.835Z,29.5
2019-05-29T03:15:33.704Z,29.7
2019-05-29T03:16:36.292Z,29.7
2019-05-29T03:17:38.907Z,29.7
2019-05-29T03:18:41.332Z,29.6
2019-05-29T03:19:43.772Z,29.5
2019-05-29T03:20:46.202Z,29.8
2019-05-29T03:21:48.633Z,29.5
2019-05-29T03:22:51.054Z,29.3
2019-05-29T03:23:52.646Z,29.4
2019-05-29T03:24:55.068Z,29.4
2019-05-29T03:25:57.499Z,29.5
2019-05-29T03:26:59.930Z,29.5
2019-05-29T03:28:02.378Z,29.4
2019-05-29T03:29:04.826Z,29.5
2019-05-29T03:30:06.994Z,29.4
2019-05-29T03:31:09.493Z,29.3
2019-05-29T03:32:13.912Z,29.7
2019-05-29T03:33:17.069Z,29.4
2019-05-29T03:34:20.132Z,29.4
2019-05-29T03:35:22.412Z,29.2
2019-05-29T03:36:35.374Z,29.5
2019-05-29T03:37:34.547Z,29.4
2019-05-29T03:38:37.159Z,29.3
2019-05-29T03:39:40.899Z,29.2
2019-05-29T03:40:43.328Z,29.2
2019-05-29T03:41:45.478Z,29.2
2019-05-29T03:42:47.902Z,29.3
2019-05-29T03:43:50.048Z,29.2
2019-05-29T03:44:52.460Z,29
2019-05-29T03:45:54.880Z,29.5
2019-05-29T03:46:57.310Z,29.2
2019-05-29T03:47:59.469Z,29.1
2019-05-29T03:49:01.886Z,29.1
2019-05-29T03:50:04.307Z,29.1
2019-05-29T03:51:06.736Z,29.3
2019-05-29T03:52:08.882Z,29.3
2019-05-29T03:53:11.405Z,29.3
2019-05-29T03:54:13.557Z,29.3
2019-05-29T03:55:15.978Z,29.1
2019-05-29T03:56:18.407Z,29.1
2019-05-29T03:57:20.828Z,29.1
2019-05-29T03:58:23.266Z,29
2019-05-29T03:59:30.650Z,29.3
2019-05-29T04:00:45.362Z,29.1
2019-05-29T04:01:43.122Z,29.2
2019-05-29T04:02:45.285Z,29.2
2019-05-29T04:03:47.718Z,29.1
2019-05-29T04:04:50.154Z,29.1
2019-05-29T04:05:52.586Z,29.2
2019-05-29T04:06:55.017Z,29.1
2019-05-29T04:07:57.173Z,29
2019-05-29T04:08:59.036Z,29
2019-05-29T04:10:01.512Z,29.1
2019-05-29T04:11:03.968Z,29.1
2019-05-29T04:12:06.396Z,29
2019-05-29T04:13:08.831Z,29.1
2019-05-29T04:14:10.966Z,29.2
2019-05-29T04:15:13.406Z,29
2019-05-29T04:16:15.299Z,29
2019-05-29T04:17:17.740Z,29.2
2019-05-29T04:18:20.167Z,29.1
2019-05-29T04:19:22.201Z,29
2019-05-29T04:20:24.637Z,29
2019-05-29T04:21:31.885Z,29.2
2019-05-29T04:22:39.545Z,29
2019-05-29T04:23:41.690Z,29
2019-05-29T04:24:44.309Z,28.8
2019-05-29T04:25:46.745Z,28.9
2019-05-29T04:26:49.169Z,28.9
2019-05-29T04:27:51.600Z,29
2019-05-29T04:28:54.217Z,29
2019-05-29T04:29:56.345Z,29.1
2019-05-29T04:30:58.515Z,29.1
2019-05-29T04:32:00.944Z,29.1
2019-05-29T04:33:03.096Z,28.9
2019-05-29T04:34:05.254Z,29.3
2019-05-29T04:35:07.685Z,29
2019-05-29T04:36:09.877Z,28.8
2019-05-29T04:37:12.294Z,29
2019-05-29T04:38:14.156Z,28.9
2019-05-29T04:39:16.310Z,29.1
2019-05-29T04:40:18.729Z,28.9
2019-05-29T04:41:21.152Z,29
2019-05-29T04:42:23.309Z,28.7
2019-05-29T04:43:25.476Z,28.8
2019-05-29T04:44:33.252Z,29.1
2019-05-29T04:45:38.051Z,29
2019-05-29T04:46:41.611Z,29
2019-05-29T04:47:44.033Z,29.1
2019-05-29T04:48:46.474Z,28.9
2019-05-29T04:49:49.898Z,29
2019-05-29T04:50:53.692Z,29.1
2019-05-29T04:51:56.138Z,29.1
2019-05-29T04:52:58.570Z,29.1
2019-05-29T04:54:01.008Z,28.9
2019-05-29T04:55:03.438Z,29.2
2019-05-29T04:56:05.877Z,28.8
2019-05-29T04:57:08.022Z,28.9
2019-05-29T04:58:10.467Z,28.8
2019-05-29T04:59:12.344Z,28.9
2019-05-29T05:00:14.487Z,29.1
2019-05-29T05:01:16.928Z,28.9
2019-05-29T05:02:19.391Z,29
2019-05-29T05:03:21.964Z,28.9
2019-05-29T05:04:24.428Z,29.1
2019-05-29T05:05:26.868Z,28.9
2019-05-29T05:06:31.531Z,28.9
2019-05-29T05:07:35.846Z,29.1
2019-05-29T05:08:40.384Z,29
2019-05-29T05:09:42.826Z,28.9
2019-05-29T05:10:44.978Z,29.1
2019-05-29T05:11:47.978Z,28.6
2019-05-29T05:12:50.484Z,29
2019-05-29T05:13:53.010Z,29.1
2019-05-29T05:14:55.446Z,29.1
2019-05-29T05:15:57.603Z,29
2019-05-29T05:17:00.029Z,29
2019-05-29T05:18:02.472Z,29.2
2019-05-29T05:19:04.900Z,29.1
2019-05-29T05:20:07.058Z,28.7
2019-05-29T05:21:09.497Z,29.1
2019-05-29T05:22:12.035Z,28.9
2019-05-29T05:23:14.255Z,29
2019-05-29T05:24:16.475Z,28.9
2019-05-29T05:25:19.112Z,29
2019-05-29T05:26:21.545Z,28.8
2019-05-29T05:27:23.718Z,28.7
2019-05-29T05:28:25.873Z,28.9
2019-05-29T05:29:28.027Z,28.8
2019-05-29T05:30:32.602Z,28.9
2019-05-29T05:31:38.496Z,28.7
2019-05-29T05:32:42.290Z,28.7
2019-05-29T05:33:44.706Z,29.1
2019-05-29T05:34:47.132Z,28.9
2019-05-29T05:35:49.055Z,28.8
2019-05-29T05:36:51.201Z,28.9
2019-05-29T05:37:53.638Z,28.7
2019-05-29T05:38:56.101Z,28.8
2019-05-29T05:39:58.523Z,29
2019-05-29T05:41:00.411Z,29.2
2019-05-29T05:42:02.563Z,29
2019-05-29T05:43:04.445Z,28.8
2019-05-29T05:44:06.702Z,29.1
2019-05-29T05:45:09.118Z,28.6
2019-05-29T05:46:11.573Z,29
2019-05-29T05:47:13.435Z,28.8
2019-05-29T05:48:15.890Z,29.2
2019-05-29T05:49:18.798Z,28.9
2019-05-29T05:50:21.234Z,28.7
2019-05-29T05:51:23.666Z,29
2019-05-29T05:52:26.117Z,29
2019-05-29T05:53:28.552Z,28.8
2019-05-29T05:54:33.346Z,28.7
2019-05-29T05:55:38.025Z,29
2019-05-29T05:56:42.778Z,29.1
2019-05-29T05:57:45.202Z,28.8
2019-05-29T05:58:47.623Z,28.9
2019-05-29T05:59:49.527Z,28.6
2019-05-29T06:00:51.959Z,28.7
2019-05-29T06:01:54.125Z,29
2019-05-29T06:02:56.545Z,28.9
2019-05-29T06:03:58.991Z,29.1
2019-05-29T06:05:01.140Z,28.7
2019-05-29T06:06:03.576Z,28.8
2019-05-29T06:07:06.000Z,29.1
2019-05-29T06:08:07.900Z,29
2019-05-29T06:09:10.325Z,28.5
2019-05-29T06:10:12.792Z,28.9
2019-05-29T06:11:15.328Z,28.8
2019-05-29T06:12:17.763Z,29
2019-05-29T06:13:20.189Z,29
2019-05-29T06:14:22.644Z,28.7
2019-05-29T06:15:24.786Z,29.1
2019-05-29T06:16:27.017Z,29
2019-05-29T06:17:29.432Z,29
2019-05-29T06:18:32.887Z,28.8
2019-05-29T06:19:37.082Z,29.1
2019-05-29T06:20:41.370Z,28.7
2019-05-29T06:21:45.075Z,28.8
2019-05-29T06:22:47.500Z,28.8
2019-05-29T06:23:49.928Z,28.8
2019-05-29T06:24:52.375Z,29
2019-05-29T06:25:54.549Z,29.1
2019-05-29T06:27:01.459Z,29.1
2019-05-29T06:28:03.893Z,28.9
2019-05-29T06:29:06.402Z,28.8
2019-05-29T06:30:09.491Z,28.9
2019-05-29T06:31:11.643Z,28.9
2019-05-29T06:32:14.104Z,28.9
2019-05-29T06:33:15.973Z,28.7
2019-05-29T06:34:18.146Z,28.9
2019-05-29T06:35:20.584Z,28.8
2019-05-29T06:36:22.469Z,28.9
2019-05-29T06:37:24.647Z,29.1
2019-05-29T06:38:26.540Z,29.1
2019-05-29T06:39:29.020Z,28.9
2019-05-29T06:40:31.445Z,29
2019-05-29T06:41:37.754Z,28.5
2019-05-29T06:42:43.866Z,28.6
2019-05-29T06:43:46.113Z,28.9
2019-05-29T06:44:49.750Z,28.7
2019-05-29T06:45:52.846Z,29.3
2019-05-29T06:46:55.011Z,28.7
2019-05-29T06:47:57.429Z,28.7
2019-05-29T06:49:00.950Z,28.6
2019-05-29T06:50:03.546Z,28.9
2019-05-29T06:51:05.969Z,29.1
2019-05-29T06:52:09.230Z,28.9
2019-05-29T06:53:11.749Z,28.8
2019-05-29T06:54:13.897Z,29.1
2019-05-29T06:55:16.134Z,29
2019-05-29T06:56:18.686Z,28.9
2019-05-29T06:57:25.055Z,28.8
2019-05-29T06:58:25.887Z,28.7
2019-05-29T06:59:28.179Z,29
2019-05-29T07:00:35.158Z,29
2019-05-29T07:01:35.257Z,28.8
2019-05-29T07:02:40.848Z,28.9
2019-05-29T07:03:48.149Z,28.6
2019-05-29T07:04:50.359Z,28.8
2019-05-29T07:05:53.104Z,28.9
2019-05-29T07:06:55.616Z,28.7
2019-05-29T07:07:58.055Z,28.9
2019-05-29T07:09:04.055Z,28.9
2019-05-29T07:10:06.281Z,29.2
2019-05-29T07:11:08.433Z,28.7
2019-05-29T07:12:10.577Z,28.8
2019-05-29T07:13:12.733Z,28.8
2019-05-29T07:14:15.171Z,29.1
2019-05-29T07:15:17.624Z,28.7
2019-05-29T07:16:19.803Z,28.9
2019-05-29T07:17:22.243Z,28.8
2019-05-29T07:18:24.675Z,28.8
2019-05-29T07:19:45.328Z,28.9
2019-05-29T07:20:32.093Z,28.7
2019-05-29T07:21:34.551Z,28.6
2019-05-29T07:22:40.987Z,29
2019-05-29T07:23:48.707Z,28.7
2019-05-29T07:24:51.338Z,28.9
2019-05-29T07:25:53.763Z,28.7
2019-05-29T07:26:56.213Z,29.1
2019-05-29T07:27:58.121Z,28.9
2019-05-29T07:29:07.856Z,28.9
2019-05-29T07:30:05.540Z,28.8
2019-05-29T07:31:08.018Z,28.9
2019-05-29T07:32:10.476Z,29.1
2019-05-29T07:33:12.897Z,29
2019-05-29T07:34:14.855Z,28.8
2019-05-29T07:35:17.165Z,28.9
2019-05-29T07:36:19.497Z,28.7
2019-05-29T07:37:21.922Z,29
2019-05-29T07:38:24.356Z,28.9
2019-05-29T07:39:26.793Z,28.9
2019-05-29T07:40:29.213Z,29
2019-05-29T07:41:35.851Z,28.8
2019-05-29T07:42:45.208Z,28.8
2019-05-29T07:43:45.889Z,28.7
2019-05-29T07:44:49.647Z,28.7
2019-05-29T07:45:52.084Z,28.9
2019-05-29T07:46:54.227Z,29.1
2019-05-29T07:47:56.650Z,28.7
2019-05-29T07:48:59.086Z,28.8
2019-05-29T07:50:01.527Z,28.7
2019-05-29T07:51:06.787Z,29
2019-05-29T07:52:08.682Z,28.9
2019-05-29T07:53:11.170Z,28.9
2019-05-29T07:54:13.601Z,28.8
2019-05-29T07:55:16.018Z,29.1
2019-05-29T07:56:22.426Z,28.8
2019-05-29T07:57:23.170Z,29.1
2019-05-29T07:58:25.591Z,28.7
2019-05-29T07:59:28.668Z,28.9
2019-05-29T08:00:35.447Z,28.7
2019-05-29T08:01:35.874Z,28.7
2019-05-29T08:02:39.438Z,28.9
2019-05-29T08:03:47.283Z,28.8
2019-05-29T08:04:51.150Z,28.8
2019-05-29T08:05:53.592Z,28.9
2019-05-29T08:06:56.040Z,28.9
2019-05-29T08:07:58.478Z,29
2019-05-29T08:09:00.909Z,28.7
2019-05-29T08:10:03.328Z,28.9
2019-05-29T08:11:05.765Z,28.7
2019-05-29T08:12:08.204Z,28.8
2019-05-29T08:13:10.636Z,29.1
2019-05-29T08:14:12.770Z,28.9
2019-05-29T08:15:14.913Z,28.7
2019-05-29T08:16:17.326Z,28.7
2019-05-29T08:17:19.761Z,28.8
2019-05-29T08:18:22.182Z,28.7
2019-05-29T08:19:24.667Z,28.9
2019-05-29T08:20:26.815Z,29.1
2019-05-29T08:21:29.241Z,28.9
2019-05-29T08:22:34.396Z,28.8
2019-05-29T08:23:36.637Z,28.9
2019-05-29T08:24:40.527Z,29.1
2019-05-29T08:25:48.158Z,29.1
2019-05-29T08:26:52.607Z,28.8
2019-05-29T08:27:54.778Z,29.2
2019-05-29T08:28:57.207Z,28.9
2019-05-29T08:29:59.663Z,28.9
2019-05-29T08:31:01.914Z,28.8
2019-05-29T08:32:04.472Z,28.6
2019-05-29T08:33:06.716Z,28.9
2019-05-29T08:34:09.209Z,28.9
2019-05-29T08:35:11.364Z,28.9
2019-05-29T08:36:13.883Z,29.2
2019-05-29T08:37:16.064Z,28.9
2019-05-29T08:38:17.933Z,29
2019-05-29T08:39:33.228Z,28.9
2019-05-29T08:40:25.087Z,28.6
2019-05-29T08:41:27.587Z,28.8
2019-05-29T08:42:30.025Z,28.9
2019-05-29T08:43:32.185Z,28.9
2019-05-29T08:44:34.625Z,29
2019-05-29T08:45:37.065Z,28.7
2019-05-29T08:46:39.495Z,28.9
2019-05-29T08:47:47.718Z,29.2
2019-05-29T08:48:52.480Z,29
2019-05-29T08:49:54.910Z,28.7
2019-05-29T08:51:00.853Z,28.8
2019-05-29T08:52:11.528Z,28.7
2019-05-29T08:53:08.283Z,28.8
2019-05-29T08:54:23.259Z,28.6
2019-05-29T08:55:15.736Z,29
2019-05-29T08:56:18.143Z,28.9
2019-05-29T08:57:20.624Z,29.1
2019-05-29T08:58:23.056Z,29
2019-05-29T08:59:25.491Z,29
2019-05-29T09:00:27.932Z,28.9
2019-05-29T09:01:30.365Z,28.7
2019-05-29T09:02:32.801Z,28.7
2019-05-29T09:03:35.236Z,28.9
2019-05-29T09:04:37.663Z,28.8
2019-05-29T09:05:39.853Z,28.8
2019-05-29T09:06:43.104Z,28.9
2019-05-29T09:07:49.782Z,28.9
2019-05-29T09:08:55.626Z,28.7
2019-05-29T09:09:58.062Z,28.8
2019-05-29T09:11:00.498Z,28.5
2019-05-29T09:12:02.932Z,28.9
2019-05-29T09:13:05.494Z,28.6
2019-05-29T09:14:07.936Z,28.9
2019-05-29T09:15:10.395Z,28.8
2019-05-29T09:16:12.939Z,28.8
2019-05-29T09:17:16.842Z,29
2019-05-29T09:18:25.449Z,29.1
2019-05-29T09:19:27.670Z,28.8
2019-05-29T09:20:50.033Z,28.9
2019-05-29T09:21:34.606Z,28.8
2019-05-29T09:22:37.041Z,28.8
2019-05-29T09:23:39.721Z,29.2
2019-05-29T09:24:42.179Z,28.9
2019-05-29T09:25:44.337Z,29
2019-05-29T09:26:46.800Z,28.7
2019-05-29T09:27:49.009Z,29
2019-05-29T09:28:51.451Z,29.1
2019-05-29T09:29:53.903Z,28.6
2019-05-29T09:30:56.055Z,28.9
2019-05-29T09:31:58.478Z,29.1
2019-05-29T09:33:00.901Z,28.7
2019-05-29T09:34:03.350Z,29.1
2019-05-29T09:35:05.793Z,29
2019-05-29T09:36:08.246Z,29.1
2019-05-29T09:37:10.418Z,28.4
2019-05-29T09:38:14.046Z,29.1
2019-05-29T09:39:22.659Z,28.7
2019-05-29T09:40:26.310Z,28.6
2019-05-29T09:41:28.746Z,29
2019-05-29T09:42:31.187Z,28.7
2019-05-29T09:43:33.336Z,28.7
2019-05-29T09:44:39.056Z,29.1
2019-05-29T09:45:40.464Z,28.6
2019-05-29T09:46:42.602Z,28.9
2019-05-29T09:47:44.766Z,29.2
2019-05-29T09:48:49.934Z,28.9
2019-05-29T09:49:51.974Z,28.8
2019-05-29T09:50:54.398Z,28.7
2019-05-29T09:51:56.289Z,29
2019-05-29T09:53:02.617Z,28.8
2019-05-29T09:54:05.967Z,28.7
2019-05-29T09:55:08.571Z,28.8
2019-05-29T09:56:10.745Z,28.9
2019-05-29T09:57:15.300Z,29.1
2019-05-29T09:58:18.184Z,29.1
2019-05-29T09:59:20.628Z,28.7
2019-05-29T10:00:23.051Z,28.7
2019-05-29T10:01:25.872Z,28.7
2019-05-29T10:02:28.578Z,28.6
2019-05-29T10:03:30.165Z,28.9
2019-05-29T10:04:32.320Z,28.7
2019-05-29T10:05:34.487Z,29.1
2019-05-29T10:06:36.373Z,28.8
2019-05-29T10:07:38.805Z,28.8
2019-05-29T10:08:41.277Z,28.5
2019-05-29T10:09:43.446Z,28.8
2019-05-29T10:10:46.287Z,28.9
2019-05-29T10:11:48.916Z,29
2019-05-29T10:12:51.397Z,28.5
2019-05-29T10:13:58.845Z,28.7
2019-05-29T10:15:06.054Z,28.8
2019-05-29T10:16:08.200Z,29
2019-05-29T10:17:12.355Z,28.5
2019-05-29T10:18:31.136Z,28.7
2019-05-29T10:19:20.316Z,28.8
2019-05-29T10:20:22.748Z,28.7
2019-05-29T10:21:38.959Z,28.7
2019-05-29T10:22:29.953Z,28.8
2019-05-29T10:23:32.387Z,28.8
2019-05-29T10:24:34.543Z,28.7
2019-05-29T10:25:36.977Z,28.6
2019-05-29T10:26:39.147Z,29.1
2019-05-29T10:27:41.583Z,28.9
2019-05-29T10:28:51.517Z,28.7
2019-05-29T10:29:51.093Z,29
2019-05-29T10:30:53.734Z,29.1
2019-05-29T10:31:56.167Z,29
2019-05-29T10:32:58.339Z,29
2019-05-29T10:34:00.777Z,28.8
2019-05-29T10:35:02.907Z,28.8
2019-05-29T10:36:05.037Z,29.1
2019-05-29T10:37:07.224Z,28.7
2019-05-29T10:38:09.795Z,28.6
2019-05-29T10:39:12.865Z,28.9
2019-05-29T10:40:15.501Z,28.7
2019-05-29T10:41:17.961Z,29
2019-05-29T10:42:20.783Z,28.6
2019-05-29T10:43:33.487Z,28.8
2019-05-29T10:44:28.288Z,28.8
2019-05-29T10:45:30.791Z,28.5
2019-05-29T10:46:33.287Z,28.8
2019-05-29T10:47:35.708Z,28.7
2019-05-29T10:48:38.127Z,29
2019-05-29T10:49:40.600Z,28.8
2019-05-29T10:50:47.658Z,29.1
2019-05-29T10:52:05.307Z,28.7
2019-05-29T10:52:54.272Z,28.8
2019-05-29T10:53:58.318Z,28.8
2019-05-29T10:55:00.917Z,28.9
2019-05-29T10:56:03.356Z,29
2019-05-29T10:57:05.815Z,28.8
2019-05-29T10:58:07.959Z,28.7
2019-05-29T10:59:10.100Z,28.7
2019-05-29T11:00:12.533Z,28.8
2019-05-29T11:01:14.405Z,28.5
2019-05-29T11:02:16.575Z,28.9
2019-05-29T11:03:18.461Z,28.9
2019-05-29T11:04:20.630Z,28.8
2019-05-29T11:05:23.056Z,29
2019-05-29T11:06:25.266Z,28.9
2019-05-29T11:07:27.456Z,28.6
2019-05-29T11:08:29.648Z,28.4
2019-05-29T11:09:43.707Z,28.9
2019-05-29T11:10:36.783Z,28.7
2019-05-29T11:11:38.937Z,28.9
2019-05-29T11:12:41.270Z,28.7
2019-05-29T11:13:43.144Z,28.7
2019-05-29T11:14:46.465Z,29.1
2019-05-29T11:15:51.279Z,28.7
2019-05-29T11:16:55.580Z,28.7
2019-05-29T11:17:59.629Z,29
2019-05-29T11:19:01.795Z,29
2019-05-29T11:20:04.979Z,28.9
2019-05-29T11:21:07.398Z,28.8
2019-05-29T11:22:25.031Z,29
2019-05-29T11:23:14.535Z,28.6
2019-05-29T11:24:16.984Z,28.9
2019-05-29T11:25:23.463Z,28.9
2019-05-29T11:26:24.136Z,29.1
2019-05-29T11:27:26.629Z,28.7
2019-05-29T11:28:28.787Z,28.9
2019-05-29T11:29:31.049Z,28.9
2019-05-29T11:30:33.392Z,28.8
2019-05-29T11:31:35.828Z,29
2019-05-29T11:32:38.777Z,28.6
2019-05-29T11:33:41.196Z,28.9
2019-05-29T11:34:43.629Z,28.9
2019-05-29T11:35:57.609Z,29
2019-05-29T11:36:51.650Z,28.9
2019-05-29T11:37:56.684Z,28.9
2019-05-29T11:39:03.855Z,28.8
2019-05-29T11:40:05.765Z,29.1
2019-05-29T11:41:24.958Z,29
2019-05-29T11:42:26.202Z,28.9
2019-05-29T11:43:18.192Z,29
2019-05-29T11:44:20.344Z,28.8
2019-05-29T11:45:22.804Z,28.9
2019-05-29T11:46:25.234Z,28.9
2019-05-29T11:47:27.696Z,29
2019-05-29T11:48:29.875Z,29.1
2019-05-29T11:49:32.316Z,28.9
2019-05-29T11:50:35.368Z,29
2019-05-29T11:51:37.787Z,29.1
2019-05-29T11:52:44.723Z,29.1
2019-05-29T11:53:46.887Z,28.9
2019-05-29T11:54:52.291Z,29
2019-05-29T11:55:55.692Z,29.2
2019-05-29T11:57:03.251Z,28.8
2019-05-29T11:58:05.778Z,29
2019-05-29T11:59:08.431Z,28.8
2019-05-29T12:00:19.346Z,28.8
2019-05-29T12:01:15.280Z,28.9
2019-05-29T12:02:17.406Z,28.8
2019-05-29T12:03:19.840Z,29.1
2019-05-29T12:04:26.070Z,28.9
2019-05-29T12:05:26.698Z,28.7
2019-05-29T12:06:29.124Z,28.6
2019-05-29T12:07:31.547Z,28.8
2019-05-29T12:08:33.724Z,28.8
2019-05-29T12:09:36.913Z,29
2019-05-29T12:10:39.420Z,29
2019-05-29T12:11:41.592Z,28.8
2019-05-29T12:12:44.738Z,28.6
2019-05-29T12:13:47.408Z,28.9
2019-05-29T12:15:00.052Z,28.9
2019-05-29T12:15:55.924Z,28.9
2019-05-29T12:17:00.719Z,28.7
2019-05-29T12:18:22.489Z,28.9
2019-05-29T12:19:09.973Z,28.8
2019-05-29T12:20:26.695Z,28.8
2019-05-29T12:21:16.876Z,28.7
2019-05-29T12:22:19.320Z,28.6
2019-05-29T12:23:26.107Z,28.8
2019-05-29T12:24:26.770Z,29
2019-05-29T12:25:30.157Z,28.7
2019-05-29T12:26:33.994Z,28.9
2019-05-29T12:27:36.152Z,28.6
2019-05-29T12:28:38.574Z,28.9
2019-05-29T12:29:40.598Z,28.9
2019-05-29T12:30:44.393Z,28.9
2019-05-29T12:31:47.469Z,28.5
2019-05-29T12:32:49.625Z,28.7
2019-05-29T12:33:53.291Z,28.6
2019-05-29T12:36:04.381Z,28.5
2019-05-29T12:37:06.855Z,28.8
2019-05-29T12:38:09.770Z,28.6
2019-05-29T12:39:11.926Z,29
2019-05-29T12:40:14.413Z,28.8
2019-05-29T12:41:16.853Z,28.7
2019-05-29T12:42:19.477Z,28.9
2019-05-29T12:43:26.944Z,28.9
2019-05-29T12:44:26.588Z,28.3
2019-05-29T12:45:29.076Z,28.8
2019-05-29T12:46:31.221Z,28.7
2019-05-29T12:47:33.655Z,28.8
2019-05-29T12:48:36.083Z,28.6
2019-05-29T12:49:38.616Z,28.9
2019-05-29T12:50:41.063Z,28.9
2019-05-29T12:51:43.566Z,28.9
2019-05-29T12:52:46.006Z,28.8
2019-05-29T12:53:48.472Z,28.6
2019-05-29T12:54:50.928Z,29.1
2019-05-29T12:55:53.913Z,28.6
2019-05-29T12:57:04.176Z,28.9
2019-05-29T12:58:06.445Z,28.5
2019-05-29T12:59:08.868Z,28.6
2019-05-29T13:00:11.026Z,29
2019-05-29T13:01:13.182Z,28.5
2019-05-29T13:02:15.045Z,28.7
2019-05-29T13:03:17.236Z,28.9
2019-05-29T13:04:20.004Z,28.7
2019-05-29T13:05:22.137Z,28.7
2019-05-29T13:06:24.303Z,28.8
2019-05-29T13:07:26.725Z,28.7
2019-05-29T13:08:29.223Z,28.6
2019-05-29T13:09:31.371Z,28.7
2019-05-29T13:10:33.816Z,28.8
2019-05-29T13:11:36.866Z,28.8
2019-05-29T13:12:39.279Z,28.6
2019-05-29T13:13:41.754Z,28.6
2019-05-29T13:14:43.901Z,28.6
2019-05-29T13:15:46.066Z,28.7
2019-05-29T13:16:48.490Z,29.1
2019-05-29T13:17:54.737Z,28.7
2019-05-29T13:18:56.970Z,29
2019-05-29T13:20:18.848Z,29
2019-05-29T13:21:09.105Z,28.9
2019-05-29T13:22:12.354Z,28.5
2019-05-29T13:23:14.838Z,29.1
2019-05-29T13:24:16.762Z,28.9
2019-05-29T13:25:19.183Z,28.4
2019-05-29T13:26:21.758Z,28.9
2019-05-29T13:27:24.189Z,28.9
2019-05-29T13:28:26.339Z,28.6
2019-05-29T13:29:28.486Z,28.8
2019-05-29T13:30:30.631Z,28.7
2019-05-29T13:31:33.234Z,28.7
2019-05-29T13:32:35.667Z,28.8
2019-05-29T13:33:38.113Z,28.7
2019-05-29T13:34:40.335Z,28.9
2019-05-29T13:35:42.767Z,28.6
2019-05-29T13:36:44.653Z,28.5
2019-05-29T13:37:46.880Z,28.9
2019-05-29T13:38:49.310Z,29.1
2019-05-29T13:39:51.465Z,28.6
2019-05-29T13:40:53.661Z,28.4
2019-05-29T13:42:04.129Z,28.6
2019-05-29T13:43:10.989Z,28.6
2019-05-29T13:44:08.846Z,28.8
2019-05-29T13:45:17.607Z,28.7
2019-05-29T13:46:16.267Z,28.9
2019-05-29T13:47:18.698Z,28.8
2019-05-29T13:48:23.377Z,28.5
2019-05-29T13:49:26.108Z,28.8
2019-05-29T13:50:28.537Z,28.9
2019-05-29T13:51:30.723Z,28.9
2019-05-29T13:52:33.202Z,29
2019-05-29T13:53:35.366Z,28.9
2019-05-29T13:54:37.264Z,28.5
2019-05-29T13:55:39.753Z,28.7
2019-05-29T13:56:42.329Z,28.9
2019-05-29T13:57:45.147Z,28.9
2019-05-29T13:58:47.385Z,28.8
2019-05-29T13:59:49.810Z,28.6
2019-05-29T14:00:51.970Z,28.9
2019-05-29T14:01:54.394Z,28.7
2019-05-29T14:02:58.214Z,28.7
2019-05-29T14:04:08.592Z,28.4
2019-05-29T14:05:11.166Z,28.5
2019-05-29T14:06:13.628Z,28.8
2019-05-29T14:07:15.796Z,29.1